SVMI/CCS METAR and TAF weather

Enter ICAO airport designator
Station Type Date Time Source
SVMI METAR 2024/04/15 09:00 UTC NOAA

SVMI 150900Z 11001KT 9999 FEW016 23/21 Q1013


Station Type Date Time Source
SVMI Decoded METAR 2024/04/15 09:00 UTC NOAA

Caracas / Maiquetia Aerop. Intl. Simon Bolivar, Venezuela (SVMI) 10-36N 066-59W 48M
Apr 15, 2024 - 05:00 AM EDT / 2024.04.15 0900 UTC
Wind: from the ESE (110 degrees) at 1 MPH (1 KT):0
Visibility: greater than 7 mile(s):0
Sky conditions: mostly clear
Temperature: 73 F (23 C)
Dew Point: 69 F (21 C)
Relative Humidity: 88%
Pressure (altimeter): 29.91 in. Hg (1013 hPa)
ob: SVMI 150900Z 11001KT 9999 FEW016 23/21 Q1013
cycle: 9

Station Type Date Time Source
SVMI TAF 2024/04/14 18:42 UTC NOAA